Time;durP1;ratioP1;P1;durP2;ratioP2;P2;SDS_P1;SDS_P2;PMS_P1;PMS_P2;Temp;Humidity;BMP_temperature;BMP_pressure;BME280_temperature;BME280_humidity;BME280_pressure;Samples;Min_cycle;Max_cycle;Signal;HPM_P1;HPM_P2
2022/10/13 00:03:45;;;;;;;;;;;20.50;49.30;;;;;;8364779;28;19923;-43
2022/10/13 00:07:45;;;;;;;;;;;20.50;49.30;;;;;;8364931;28;20304;-43
2022/10/13 00:11:45;;;;;;;;;;;20.50;49.30;;;;;;8364182;28;19928;-44
2022/10/13 00:15:46;;;;;;;;;;;20.50;49.30;;;;;;8364737;28;19928;-43
2022/10/13 00:19:46;;;;;;;;;;;20.50;49.30;;;;;;8364558;28;19917;-43
2022/10/13 00:23:47;;;;;;;;;;;20.50;49.30;;;;;;8363889;28;19924;-44
2022/10/13 00:27:48;;;;;;;;;;;20.50;49.30;;;;;;8364065;28;19932;-43
2022/10/13 00:31:48;;;;;;;;;;;20.50;49.30;;;;;;8363142;28;20348;-45
2022/10/13 00:35:49;;;;;;;;;;;20.50;49.30;;;;;;8363524;28;20335;-43
2022/10/13 00:39:49;;;;;;;;;;;20.50;49.30;;;;;;8364196;28;19988;-44
2022/10/13 00:43:50;;;;;;;;;;;20.50;49.30;;;;;;8364093;28;20000;-44
2022/10/13 00:47:53;;;;;;;;;;;20.50;49.30;;;;;;8363459;28;20432;-43
2022/10/13 00:51:53;;;;;;;;;;;20.40;49.30;;;;;;8363598;28;19917;-43
2022/10/13 00:55:54;;;;;;;;;;;20.50;49.30;;;;;;8363754;28;19924;-43
2022/10/13 00:59:55;;;;;;;;;;;20.50;49.30;;;;;;8363561;28;19920;-43
2022/10/13 01:03:55;;;;;;;;;;;20.40;49.30;;;;;;8363819;28;19917;-45
2022/10/13 01:07:56;;;;;;;;;;;20.50;49.40;;;;;;8363414;28;20360;-43
2022/10/13 01:12:03;;;;;;;;;;;20.50;49.40;;;;;;8356583;28;19924;-43
2022/10/13 01:16:12;;;;;;;;;;;20.40;49.30;;;;;;8363240;28;20361;-44
2022/10/13 01:20:22;;;;;;;;;;;20.40;49.30;;;;;;8363496;28;19913;-44
2022/10/13 01:24:22;;;;;;;;;;;20.40;49.30;;;;;;8362528;28;19924;-43
2022/10/13 01:28:31;;;;;;;;;;;20.40;49.30;;;;;;8363052;28;19925;-43
2022/10/13 01:32:50;;;;;;;;;;;20.50;49.40;;;;;;8366148;28;19921;-44
2022/10/13 01:36:54;;;;;;;;;;;20.40;49.30;;;;;;8362602;28;20328;-43
2022/10/13 01:41:01;;;;;;;;;;;20.40;49.40;;;;;;8363061;28;19956;-43
2022/10/13 01:45:02;;;;;;;;;;;20.40;49.40;;;;;;8366827;28;19917;-43
2022/10/13 01:49:10;;;;;;;;;;;20.40;49.40;;;;;;8368998;28;19932;-43
2022/10/13 01:53:11;;;;;;;;;;;20.40;49.40;;;;;;8368858;28;19966;-43
2022/10/13 01:57:31;;;;;;;;;;;20.40;49.40;;;;;;8368579;28;19924;-45
2022/10/13 02:01:34;;;;;;;;;;;20.40;49.40;;;;;;8368919;28;20285;-43
2022/10/13 02:05:54;;;;;;;;;;;20.40;49.40;;;;;;8368690;28;19917;-44
2022/10/13 02:10:13;;;;;;;;;;;20.40;49.40;;;;;;8368372;28;19970;-43
2022/10/13 02:14:19;;;;;;;;;;;20.40;49.50;;;;;;8368201;28;19924;-43
2022/10/13 02:18:30;;;;;;;;;;;20.40;49.40;;;;;;8367654;28;19917;-43
2022/10/13 02:22:32;;;;;;;;;;;20.40;49.40;;;;;;8368191;28;19913;-43
2022/10/13 02:26:33;;;;;;;;;;;20.40;49.40;;;;;;8368007;28;20374;-44
2022/10/13 02:30:34;;;;;;;;;;;20.40;49.40;;;;;;8367598;28;20370;-43
2022/10/13 02:34:35;;;;;;;;;;;20.30;49.40;;;;;;8367886;28;20007;-43
2022/10/13 02:38:35;;;;;;;;;;;20.40;49.40;;;;;;8367449;28;19913;-43
2022/10/13 02:42:36;;;;;;;;;;;20.30;49.40;;;;;;8367476;28;20293;-45
2022/10/13 02:46:36;;;;;;;;;;;20.40;49.40;;;;;;8367309;28;19958;-43
2022/10/13 02:50:36;;;;;;;;;;;20.40;49.90;;;;;;8367292;28;20007;-44
2022/10/13 02:54:37;;;;;;;;;;;20.40;49.40;;;;;;8365626;28;20003;-43
2022/10/13 02:58:37;;;;;;;;;;;20.40;49.40;;;;;;8366889;28;19962;-44
2022/10/13 03:02:38;;;;;;;;;;;20.40;49.40;;;;;;8366921;28;19975;-44
2022/10/13 03:06:38;;;;;;;;;;;20.40;49.40;;;;;;8366311;28;19934;-43
2022/10/13 03:10:39;;;;;;;;;;;20.40;49.40;;;;;;8366623;28;20293;-45
2022/10/13 03:14:39;;;;;;;;;;;20.30;49.40;;;;;;8366336;28;19964;-43
2022/10/13 03:18:40;;;;;;;;;;;20.40;49.50;;;;;;8365929;28;20058;-43
2022/10/13 03:22:40;;;;;;;;;;;20.30;49.50;;;;;;8366237;28;19923;-43
2022/10/13 03:26:40;;;;;;;;;;;20.30;49.50;;;;;;8365771;28;19913;-43
2022/10/13 03:30:41;;;;;;;;;;;20.40;49.50;;;;;;8366113;28;20297;-46
2022/10/13 03:34:41;;;;;;;;;;;20.30;49.40;;;;;;8366159;28;19916;-44
2022/10/13 03:38:42;;;;;;;;;;;20.40;49.50;;;;;;8365314;28;20439;-43
2022/10/13 03:42:42;;;;;;;;;;;20.30;49.50;;;;;;8365898;28;19999;-43
2022/10/13 03:46:43;;;;;;;;;;;20.30;49.50;;;;;;8365667;28;20392;-43
2022/10/13 03:50:44;;;;;;;;;;;20.30;49.50;;;;;;8365077;28;19947;-44
2022/10/13 03:54:44;;;;;;;;;;;20.30;49.50;;;;;;8365157;28;19924;-43
2022/10/13 03:58:44;;;;;;;;;;;20.30;49.50;;;;;;8365303;28;19917;-44
2022/10/13 04:02:47;;;;;;;;;;;20.30;49.50;;;;;;8364665;28;19912;-42
2022/10/13 04:06:47;;;;;;;;;;;20.30;49.50;;;;;;8348998;28;20271;-44
2022/10/13 04:10:56;;;;;;;;;;;20.30;49.50;;;;;;8364905;28;19929;-43
2022/10/13 04:14:57;;;;;;;;;;;20.30;49.50;;;;;;8364274;28;19928;-43
2022/10/13 04:19:02;;;;;;;;;;;20.30;49.50;;;;;;8364592;28;19917;-43
2022/10/13 04:23:03;;;;;;;;;;;20.30;49.50;;;;;;8364362;28;19919;-43
2022/10/13 04:27:03;;;;;;;;;;;20.30;49.50;;;;;;8364300;28;19917;-43
2022/10/13 04:31:04;;;;;;;;;;;20.40;49.60;;;;;;8364285;28;19960;-42
2022/10/13 04:35:04;;;;;;;;;;;20.30;50.00;;;;;;8364117;28;19917;-42
2022/10/13 04:39:04;;;;;;;;;;;20.30;49.40;;;;;;8363608;28;20374;-43
2022/10/13 04:43:05;;;;;;;;;;;20.30;49.40;;;;;;8363715;28;20282;-43
2022/10/13 04:47:05;;;;;;;;;;;20.30;49.50;;;;;;8363776;28;20258;-43
2022/10/13 04:51:11;;;;;;;;;;;20.30;49.50;;;;;;8363308;28;19927;-44
2022/10/13 04:55:11;;;;;;;;;;;20.30;49.50;;;;;;8363521;28;20403;-45
2022/10/13 04:59:11;;;;;;;;;;;20.30;49.50;;;;;;8363434;28;19924;-45
2022/10/13 05:03:12;;;;;;;;;;;20.30;49.50;;;;;;8362927;28;19916;-45
2022/10/13 05:07:12;;;;;;;;;;;20.30;49.50;;;;;;8363417;28;19917;-44
2022/10/13 05:11:13;;;;;;;;;;;20.30;49.50;;;;;;8363345;28;20004;-44
2022/10/13 05:15:13;;;;;;;;;;;20.30;49.50;;;;;;8362639;28;19923;-44
2022/10/13 05:19:14;;;;;;;;;;;20.30;49.50;;;;;;8366411;28;19970;-43
2022/10/13 05:23:14;;;;;;;;;;;20.30;49.50;;;;;;8369816;28;20296;-44
2022/10/13 05:27:15;;;;;;;;;;;20.30;49.50;;;;;;8369493;28;19913;-44
2022/10/13 05:31:17;;;;;;;;;;;20.30;49.50;;;;;;8370067;28;19967;-43
2022/10/13 05:35:17;;;;;;;;;;;20.30;49.50;;;;;;8369782;28;19924;-44
2022/10/13 05:39:18;;;;;;;;;;;20.30;49.50;;;;;;8368441;28;19916;-44
2022/10/13 05:43:18;;;;;;;;;;;20.30;49.50;;;;;;8369700;28;20262;-44
2022/10/13 05:47:19;;;;;;;;;;;20.30;49.50;;;;;;8369455;28;19916;-43
2022/10/13 05:51:21;;;;;;;;;;;20.30;49.50;;;;;;8368724;28;19921;-44
2022/10/13 05:55:22;;;;;;;;;;;20.30;49.50;;;;;;8368955;28;19921;-43
2022/10/13 05:59:23;;;;;;;;;;;20.30;49.50;;;;;;8368861;28;20392;-44
2022/10/13 06:03:24;;;;;;;;;;;20.30;49.60;;;;;;8368253;28;19917;-43
2022/10/13 06:07:25;;;;;;;;;;;20.30;49.50;;;;;;8368821;28;20289;-43
2022/10/13 06:11:25;;;;;;;;;;;20.30;49.50;;;;;;8368594;28;19943;-43
2022/10/13 06:15:26;;;;;;;;;;;20.30;49.50;;;;;;8367906;28;19923;-44
2022/10/13 06:19:26;;;;;;;;;;;20.30;49.50;;;;;;8368100;28;19924;-43
2022/10/13 06:23:27;;;;;;;;;;;20.30;49.50;;;;;;8368168;28;19917;-43
2022/10/13 06:27:27;;;;;;;;;;;20.30;49.50;;;;;;8367616;28;19920;-44
2022/10/13 06:31:28;;;;;;;;;;;20.30;50.10;;;;;;8366629;28;19996;-44
2022/10/13 06:35:28;;;;;;;;;;;20.30;49.60;;;;;;8367570;28;19923;-43
2022/10/13 06:39:28;;;;;;;;;;;20.30;49.50;;;;;;8367181;28;19966;-43
2022/10/13 06:43:29;;;;;;;;;;;20.30;49.60;;;;;;8367856;28;19986;-44
2022/10/13 06:47:29;;;;;;;;;;;20.30;49.50;;;;;;8367752;28;19935;-43
2022/10/13 06:51:30;;;;;;;;;;;20.30;49.60;;;;;;8366621;28;20031;-43
2022/10/13 06:55:30;;;;;;;;;;;20.30;49.60;;;;;;8367063;28;20262;-43
2022/10/13 06:59:31;;;;;;;;;;;20.30;49.60;;;;;;8367007;28;19923;-44
2022/10/13 07:03:31;;;;;;;;;;;20.30;49.50;;;;;;8366338;28;19917;-44
2022/10/13 07:07:32;;;;;;;;;;;20.30;49.60;;;;;;8366852;28;20425;-43
2022/10/13 07:11:33;;;;;;;;;;;20.30;49.50;;;;;;8365469;28;19963;-42
2022/10/13 07:15:35;;;;;;;;;;;20.30;49.60;;;;;;8365972;28;20050;-44
2022/10/13 07:19:36;;;;;;;;;;;20.30;49.60;;;;;;8366743;28;19923;-42
2022/10/13 07:23:36;;;;;;;;;;;20.30;49.60;;;;;;8366275;28;20369;-42
2022/10/13 07:27:39;;;;;;;;;;;20.30;49.60;;;;;;8366306;28;19966;-43
2022/10/13 07:31:41;;;;;;;;;;;20.30;49.50;;;;;;8366125;28;20435;-43
2022/10/13 07:35:41;;;;;;;;;;;20.30;49.60;;;;;;8365878;28;19924;-44
2022/10/13 07:39:42;;;;;;;;;;;20.30;49.60;;;;;;8365941;28;19917;-43
2022/10/13 07:43:42;;;;;;;;;;;20.30;49.60;;;;;;8366596;28;19952;-43
2022/10/13 07:47:42;;;;;;;;;;;20.30;49.60;;;;;;8365734;28;19921;-44
2022/10/13 07:51:43;;;;;;;;;;;20.30;49.60;;;;;;8365778;28;19924;-44
2022/10/13 07:55:43;;;;;;;;;;;20.30;49.60;;;;;;8365432;28;19917;-46
2022/10/13 07:59:44;;;;;;;;;;;20.30;49.60;;;;;;8364807;28;19917;-44
2022/10/13 08:03:45;;;;;;;;;;;20.30;49.50;;;;;;8365283;28;20229;-43
2022/10/13 08:07:45;;;;;;;;;;;20.30;49.60;;;;;;8365270;28;19916;-42
2022/10/13 08:11:46;;;;;;;;;;;20.30;49.50;;;;;;8364310;28;19983;-42
2022/10/13 08:15:46;;;;;;;;;;;20.30;49.60;;;;;;8364645;28;19921;-43
2022/10/13 08:19:46;;;;;;;;;;;20.30;49.60;;;;;;8364674;28;19921;-44
2022/10/13 08:23:47;;;;;;;;;;;20.30;49.60;;;;;;8363721;28;19921;-43
2022/10/13 08:27:47;;;;;;;;;;;20.30;49.60;;;;;;8364718;28;19920;-42
2022/10/13 08:31:48;;;;;;;;;;;20.30;49.50;;;;;;8364005;28;19917;-43
2022/10/13 08:35:49;;;;;;;;;;;20.30;49.50;;;;;;8363460;28;20007;-44
2022/10/13 08:39:49;;;;;;;;;;;20.30;49.50;;;;;;8364109;28;20365;-45
2022/10/13 08:43:51;;;;;;;;;;;20.30;49.50;;;;;;8364077;28;19925;-44
2022/10/13 08:47:53;;;;;;;;;;;20.30;49.60;;;;;;8363323;28;19917;-45
2022/10/13 08:51:54;;;;;;;;;;;20.30;49.50;;;;;;8363417;28;19923;-43
2022/10/13 08:55:56;;;;;;;;;;;20.40;49.50;;;;;;8363136;28;20362;-44
2022/10/13 08:59:57;;;;;;;;;;;20.30;49.50;;;;;;8363076;28;19963;-44
2022/10/13 09:04:00;;;;;;;;;;;20.40;49.50;;;;;;8363552;28;19925;-44
2022/10/13 09:08:01;;;;;;;;;;;20.40;49.60;;;;;;8363468;28;19917;-44
2022/10/13 09:12:02;;;;;;;;;;;20.30;49.50;;;;;;8363030;28;19960;-44
2022/10/13 09:16:03;;;;;;;;;;;20.40;49.60;;;;;;8363496;28;20404;-43
2022/10/13 09:20:17;;;;;;;;;;;20.30;49.50;;;;;;8363159;28;20012;-44
2022/10/13 09:24:18;;;;;;;;;;;20.40;49.60;;;;;;8362133;28;20373;-44
2022/10/13 09:28:24;;;;;;;;;;;20.30;49.50;;;;;;8363407;28;19921;-43
2022/10/13 09:32:25;;;;;;;;;;;20.40;49.60;;;;;;8363036;28;20007;-43
2022/10/13 09:36:25;;;;;;;;;;;20.40;49.60;;;;;;8362425;28;19917;-42
2022/10/13 09:40:29;;;;;;;;;;;20.40;49.50;;;;;;8361657;28;19928;-43
2022/10/13 09:44:30;;;;;;;;;;;20.40;49.50;;;;;;8361482;28;19967;-44
2022/10/13 09:48:33;;;;;;;;;;;20.40;49.40;;;;;;8362419;28;20423;-45
2022/10/13 09:52:34;;;;;;;;;;;20.40;49.40;;;;;;8362638;28;19917;-44
2022/10/13 09:56:40;;;;;;;;;;;20.40;49.40;;;;;;8362446;28;20340;-46
2022/10/13 10:00:41;;;;;;;;;;;20.40;49.40;;;;;;8362128;28;19923;-45
2022/10/13 10:04:42;;;;;;;;;;;20.40;49.40;;;;;;8364282;28;20366;-42
2022/10/13 10:08:49;;;;;;;;;;;20.40;49.40;;;;;;8368418;28;20054;-43
2022/10/13 10:12:49;;;;;;;;;;;20.40;49.50;;;;;;8337381;28;19993;-43
2022/10/13 10:17:03;;;;;;;;;;;20.50;49.50;;;;;;8358099;28;19928;-43
2022/10/13 10:21:21;;;;;;;;;;;20.50;49.50;;;;;;8367790;28;19916;-43
2022/10/13 10:25:41;;;;;;;;;;;20.50;49.40;;;;;;8368062;28;19920;-43
2022/10/13 10:29:41;;;;;;;;;;;20.50;49.50;;;;;;8367456;28;19984;-44
2022/10/13 10:33:53;;;;;;;;;;;20.50;49.40;;;;;;8368025;28;19947;-42
2022/10/13 10:38:17;;;;;;;;;;;20.50;49.40;;;;;;8367852;28;20297;-44
2022/10/13 10:42:17;;;;;;;;;;;20.50;49.40;;;;;;8356245;28;20011;-44
2022/10/13 10:46:22;;;;;;;;;;;20.50;49.40;;;;;;8367673;28;19924;-42
2022/10/13 10:50:23;;;;;;;;;;;20.50;49.40;;;;;;8367394;28;19934;-44
2022/10/13 10:54:26;;;;;;;;;;;20.50;49.30;;;;;;8366762;28;19917;-43
2022/10/13 10:58:36;;;;;;;;;;;20.50;49.30;;;;;;8367236;28;19917;-44
2022/10/13 11:02:42;;;;;;;;;;;20.60;49.30;;;;;;8367101;28;20079;-43
2022/10/13 11:06:42;;;;;;;;;;;20.60;49.30;;;;;;8366987;28;19917;-44
2022/10/13 11:10:43;;;;;;;;;;;20.60;49.30;;;;;;8366644;28;19920;-43
2022/10/13 11:14:47;;;;;;;;;;;20.60;49.30;;;;;;8366138;28;19956;-43
2022/10/13 11:18:53;;;;;;;;;;;20.60;49.30;;;;;;8365943;28;19913;-43
2022/10/13 11:22:57;;;;;;;;;;;20.60;49.20;;;;;;8366442;28;19928;-42
2022/10/13 11:27:17;;;;;;;;;;;20.60;49.20;;;;;;8365910;28;19920;-44
2022/10/13 11:31:26;;;;;;;;;;;20.70;49.20;;;;;;8365923;28;19971;-45
2022/10/13 11:35:27;;;;;;;;;;;20.70;49.20;;;;;;8365963;28;19936;-44
2022/10/13 11:39:30;;;;;;;;;;;20.70;49.20;;;;;;8365555;28;19916;-46
2022/10/13 11:43:36;;;;;;;;;;;20.70;49.20;;;;;;8365496;28;19966;-43
2022/10/13 11:47:58;;;;;;;;;;;20.70;49.20;;;;;;8365418;28;19913;-45
2022/10/13 11:52:01;;;;;;;;;;;20.70;49.20;;;;;;8365139;28;20003;-44
2022/10/13 11:56:01;;;;;;;;;;;20.70;49.20;;;;;;8365414;28;19913;-45
2022/10/13 12:00:03;;;;;;;;;;;20.70;49.20;;;;;;8364757;28;19923;-45
2022/10/13 12:04:11;;;;;;;;;;;20.80;49.20;;;;;;8365160;28;20373;-45
2022/10/13 12:08:12;;;;;;;;;;;20.80;49.20;;;;;;8364217;28;20051;-44
2022/10/13 12:12:13;;;;;;;;;;;20.80;49.20;;;;;;8364142;28;20366;-44
2022/10/13 12:16:14;;;;;;;;;;;20.80;49.20;;;;;;8364245;28;19944;-44
2022/10/13 12:20:22;;;;;;;;;;;20.80;49.10;;;;;;8364418;28;19921;-46
2022/10/13 12:24:24;;;;;;;;;;;20.80;49.20;;;;;;8364295;28;19921;-44
2022/10/13 12:28:26;;;;;;;;;;;20.80;49.10;;;;;;8364118;28;19982;-44
2022/10/13 12:32:28;;;;;;;;;;;20.80;49.10;;;;;;8364710;28;19913;-44
2022/10/13 12:36:33;;;;;;;;;;;20.80;49.20;;;;;;8363546;28;19924;-44
2022/10/13 12:40:33;;;;;;;;;;;20.80;49.20;;;;;;8363985;28;19920;-43
2022/10/13 12:44:34;;;;;;;;;;;20.80;49.20;;;;;;8364008;28;20383;-44
2022/10/13 12:48:35;;;;;;;;;;;20.80;49.20;;;;;;8362881;28;20305;-43
2022/10/13 12:52:36;;;;;;;;;;;20.80;49.20;;;;;;8363577;28;20286;-44
2022/10/13 12:56:41;;;;;;;;;;;20.80;49.20;;;;;;8363389;28;19970;-43
2022/10/13 13:00:41;;;;;;;;;;;20.80;49.10;;;;;;8363008;28;20283;-44
2022/10/13 13:04:42;;;;;;;;;;;20.80;49.10;;;;;;8362391;28;19919;-45
2022/10/13 13:08:43;;;;;;;;;;;20.90;49.10;;;;;;8362760;28;20394;-44
2022/10/13 13:12:44;;;;;;;;;;;20.90;49.20;;;;;;8363018;28;19917;-44
2022/10/13 13:17:00;;;;;;;;;;;20.90;49.10;;;;;;8362909;28;20329;-44
2022/10/13 13:21:03;;;;;;;;;;;20.90;49.10;;;;;;8362488;28;19925;-44
2022/10/13 13:25:05;;;;;;;;;;;20.90;49.00;;;;;;8363261;28;19913;-45
2022/10/13 13:29:07;;;;;;;;;;;20.90;49.10;;;;;;8362681;28;19992;-44
2022/10/13 13:33:08;;;;;;;;;;;20.90;49.10;;;;;;8362430;28;20384;-44
2022/10/13 13:37:11;;;;;;;;;;;20.90;49.10;;;;;;8362778;28;19923;-44
2022/10/13 13:41:12;;;;;;;;;;;20.90;49.10;;;;;;8367648;28;20292;-45
2022/10/13 13:45:13;;;;;;;;;;;20.90;49.10;;;;;;8368934;28;20281;-43
2022/10/13 13:49:14;;;;;;;;;;;20.90;49.10;;;;;;8368866;28;19931;-44
2022/10/13 13:53:14;;;;;;;;;;;20.90;49.10;;;;;;8368901;28;19951;-44
2022/10/13 13:57:15;;;;;;;;;;;20.90;49.10;;;;;;8368344;28;19971;-44
2022/10/13 14:01:15;;;;;;;;;;;20.90;49.10;;;;;;8368708;28;20297;-44
2022/10/13 14:05:16;;;;;;;;;;;20.90;49.10;;;;;;8368799;28;19967;-44
2022/10/13 14:09:16;;;;;;;;;;;20.90;49.10;;;;;;8368010;28;19929;-44
2022/10/13 14:13:17;;;;;;;;;;;20.90;49.00;;;;;;8368397;28;20215;-45
2022/10/13 14:17:17;;;;;;;;;;;20.90;49.00;;;;;;8368447;28;19921;-44
2022/10/13 14:21:18;;;;;;;;;;;20.90;49.00;;;;;;8367762;28;19917;-45
2022/10/13 14:25:18;;;;;;;;;;;20.90;49.00;;;;;;8368335;28;19913;-44
2022/10/13 14:29:19;;;;;;;;;;;20.90;49.00;;;;;;8368268;28;19925;-44
2022/10/13 14:33:19;;;;;;;;;;;20.90;49.00;;;;;;8367351;28;19923;-44
2022/10/13 14:37:20;;;;;;;;;;;20.90;49.00;;;;;;8367768;28;19920;-44
2022/10/13 14:41:21;;;;;;;;;;;20.90;49.00;;;;;;8368050;28;20284;-45
2022/10/13 14:45:21;;;;;;;;;;;20.90;49.00;;;;;;8367328;28;20328;-45
2022/10/13 14:49:21;;;;;;;;;;;20.90;49.00;;;;;;8367190;28;19952;-44
2022/10/13 14:53:25;;;;;;;;;;;20.90;49.00;;;;;;8365927;28;19929;-44
2022/10/13 14:57:25;;;;;;;;;;;20.90;49.00;;;;;;8366696;28;20466;-43
2022/10/13 15:01:26;;;;;;;;;;;20.90;49.00;;;;;;8366590;28;19923;-44
2022/10/13 16:01:35;;;;;;;;;;;20.90;49.10;;;;;;8368680;28;19925;-43
2022/10/13 16:05:38;;;;;;;;;;;20.90;49.10;;;;;;8430687;28;19920;-45
2022/10/13 16:09:39;;;;;;;;;;;20.90;49.10;;;;;;8406127;28;19931;-46
2022/10/13 16:13:39;;;;;;;;;;;20.90;49.10;;;;;;8416024;28;19920;-47
2022/10/13 16:17:40;;;;;;;;;;;20.90;49.10;;;;;;8431277;28;19920;-45
2022/10/13 16:21:41;;;;;;;;;;;20.90;49.10;;;;;;8430908;28;19923;-43
2022/10/13 16:25:41;;;;;;;;;;;20.90;49.10;;;;;;8431264;28;19916;-43
2022/10/13 16:29:42;;;;;;;;;;;20.90;49.20;;;;;;8430255;28;19924;-45
2022/10/13 16:33:43;;;;;;;;;;;20.90;49.20;;;;;;8431098;28;19970;-44
2022/10/13 16:37:44;;;;;;;;;;;20.90;49.20;;;;;;8430559;28;19912;-46
2022/10/13 16:41:45;;;;;;;;;;;20.90;49.20;;;;;;8430057;28;20388;-45
2022/10/13 16:45:59;;;;;;;;;;;20.90;49.20;;;;;;8430997;28;19961;-53
2022/10/13 16:50:00;;;;;;;;;;;20.90;49.20;;;;;;8430064;28;19931;-45
2022/10/13 16:54:00;;;;;;;;;;;20.90;49.70;;;;;;8429264;28;19924;-45
2022/10/13 16:58:00;;;;;;;;;;;20.90;49.20;;;;;;8429886;28;19965;-44
2022/10/13 17:02:01;;;;;;;;;;;20.90;49.20;;;;;;8429790;28;19994;-44
2022/10/13 17:06:02;;;;;;;;;;;20.80;49.20;;;;;;8429564;28;19928;-44
2022/10/13 17:10:03;;;;;;;;;;;20.90;49.30;;;;;;8429438;28;19931;-43
2022/10/13 17:14:04;;;;;;;;;;;20.80;49.20;;;;;;8428915;28;19956;-43
2022/10/13 17:18:04;;;;;;;;;;;20.90;49.80;;;;;;8429154;28;20357;-44
2022/10/13 17:22:05;;;;;;;;;;;20.80;49.30;;;;;;8429681;28;19916;-44
2022/10/13 17:26:07;;;;;;;;;;;20.80;49.30;;;;;;8429919;28;19961;-44
2022/10/13 17:30:07;;;;;;;;;;;20.80;49.30;;;;;;8428788;28;20297;-46
2022/10/13 17:34:08;;;;;;;;;;;20.90;49.30;;;;;;8429205;28;20015;-45
2022/10/13 17:38:08;;;;;;;;;;;20.80;49.30;;;;;;8429120;28;20014;-44
2022/10/13 17:42:09;;;;;;;;;;;20.80;49.40;;;;;;8428937;28;19920;-44
2022/10/13 17:46:14;;;;;;;;;;;20.90;49.40;;;;;;8429217;28;19921;-44
2022/10/13 17:50:14;;;;;;;;;;;20.80;49.40;;;;;;8429066;28;19946;-45
2022/10/13 17:54:15;;;;;;;;;;;20.80;49.40;;;;;;8428462;28;19917;-44
2022/10/13 17:58:15;;;;;;;;;;;20.80;49.40;;;;;;8428796;28;19916;-44
2022/10/13 18:02:17;;;;;;;;;;;20.80;49.40;;;;;;8428937;28;19916;-44
2022/10/13 18:06:18;;;;;;;;;;;20.80;49.50;;;;;;8428498;28;19920;-43
2022/10/13 18:10:19;;;;;;;;;;;20.80;49.50;;;;;;8428578;28;19924;-45
2022/10/13 18:14:20;;;;;;;;;;;20.80;49.50;;;;;;8428733;28;20351;-44
2022/10/13 18:18:21;;;;;;;;;;;20.80;49.50;;;;;;8428153;28;19962;-44
2022/10/13 18:22:21;;;;;;;;;;;20.80;49.50;;;;;;8428609;28;19912;-42
2022/10/13 18:26:23;;;;;;;;;;;20.80;49.50;;;;;;8431672;28;19926;-44
2022/10/13 18:30:23;;;;;;;;;;;20.80;49.50;;;;;;8434073;28;20005;-44
2022/10/13 18:34:23;;;;;;;;;;;20.80;49.50;;;;;;8434533;28;19916;-45
2022/10/13 18:38:24;;;;;;;;;;;20.80;49.50;;;;;;8434273;28;19935;-44
2022/10/13 18:42:26;;;;;;;;;;;20.80;49.50;;;;;;8433994;28;19916;-43
2022/10/13 18:46:26;;;;;;;;;;;20.80;49.50;;;;;;8434151;28;20436;-43
2022/10/13 18:50:27;;;;;;;;;;;20.80;49.60;;;;;;8433977;28;19977;-43
2022/10/13 18:54:28;;;;;;;;;;;20.80;49.50;;;;;;8433296;28;19995;-43
2022/10/13 18:58:30;;;;;;;;;;;20.80;49.50;;;;;;8433649;28;20007;-44
2022/10/13 19:02:30;;;;;;;;;;;20.80;49.60;;;;;;8432765;28;20003;-43
2022/10/13 19:06:31;;;;;;;;;;;20.80;49.60;;;;;;8394532;28;20281;-44
2022/10/13 19:10:32;;;;;;;;;;;20.80;49.60;;;;;;8414322;28;20313;-44
2022/10/13 19:14:32;;;;;;;;;;;20.80;49.60;;;;;;8433012;28;20341;-45
2022/10/13 19:18:33;;;;;;;;;;;20.80;49.60;;;;;;8432360;28;19920;-43
2022/10/13 19:22:33;;;;;;;;;;;20.80;49.60;;;;;;8432711;28;19912;-45
2022/10/13 19:26:34;;;;;;;;;;;20.80;49.60;;;;;;8432699;28;20003;-45
2022/10/13 19:30:35;;;;;;;;;;;20.80;49.70;;;;;;8432040;28;19924;-44
2022/10/13 19:34:35;;;;;;;;;;;20.80;49.60;;;;;;8432197;28;19916;-45
2022/10/13 19:38:36;;;;;;;;;;;20.80;49.60;;;;;;8431635;28;20424;-44
2022/10/13 19:42:37;;;;;;;;;;;20.80;49.60;;;;;;8432803;28;20368;-44
2022/10/13 19:46:38;;;;;;;;;;;20.80;49.60;;;;;;8432080;28;20277;-45
2022/10/13 19:50:40;;;;;;;;;;;20.80;49.60;;;;;;8431888;28;19956;-45
2022/10/13 19:54:41;;;;;;;;;;;20.80;49.60;;;;;;8431826;28;20384;-45
2022/10/13 19:58:41;;;;;;;;;;;20.70;49.60;;;;;;8431928;28;19963;-45
2022/10/13 20:02:43;;;;;;;;;;;20.80;49.60;;;;;;8430413;28;21478;-43
2022/10/13 20:06:44;;;;;;;;;;;20.80;49.60;;;;;;8431399;28;19923;-44
2022/10/13 20:10:44;;;;;;;;;;;20.70;49.60;;;;;;8431256;28;20368;-46
2022/10/13 20:14:44;;;;;;;;;;;20.70;49.60;;;;;;8430912;28;20277;-45
2022/10/13 20:18:49;;;;;;;;;;;20.70;49.60;;;;;;8431541;28;19916;-44
2022/10/13 20:22:49;;;;;;;;;;;20.70;49.60;;;;;;8431410;28;20387;-44
2022/10/13 20:26:50;;;;;;;;;;;20.80;49.60;;;;;;8430311;28;19928;-43
2022/10/13 20:30:50;;;;;;;;;;;20.70;49.60;;;;;;8430931;28;19939;-45
2022/10/13 20:34:51;;;;;;;;;;;20.70;49.60;;;;;;8430815;28;19942;-45
2022/10/13 20:38:52;;;;;;;;;;;20.70;49.60;;;;;;8430124;28;19930;-44
2022/10/13 20:42:53;;;;;;;;;;;20.70;49.60;;;;;;8430765;28;20322;-45
2022/10/13 20:46:53;;;;;;;;;;;20.70;49.90;;;;;;8430320;28;19916;-45
2022/10/13 20:50:57;;;;;;;;;;;20.70;49.60;;;;;;8428951;28;19947;-44
2022/10/13 20:54:57;;;;;;;;;;;20.70;49.60;;;;;;8429973;28;19951;-47
2022/10/13 20:59:04;;;;;;;;;;;20.70;49.60;;;;;;8430093;28;19939;-44
2022/10/13 21:03:05;;;;;;;;;;;20.70;49.60;;;;;;8429833;28;19920;-44
2022/10/13 21:07:05;;;;;;;;;;;20.70;49.60;;;;;;8429960;28;19923;-46
2022/10/13 21:11:10;;;;;;;;;;;20.70;49.60;;;;;;8429893;28;19924;-45
2022/10/13 21:15:10;;;;;;;;;;;20.70;49.70;;;;;;8429188;28;20006;-46
2022/10/13 21:19:11;;;;;;;;;;;20.70;49.70;;;;;;8429811;28;19917;-42
2022/10/13 21:23:11;;;;;;;;;;;20.70;49.70;;;;;;8430090;28;19916;-43
2022/10/13 21:27:12;;;;;;;;;;;20.70;49.70;;;;;;8429169;28;19916;-49
2022/10/13 21:31:13;;;;;;;;;;;20.70;49.70;;;;;;8429406;28;19924;-44
2022/10/13 21:35:13;;;;;;;;;;;20.70;49.70;;;;;;8429453;28;20333;-46
2022/10/13 21:39:14;;;;;;;;;;;20.70;50.20;;;;;;8428848;28;19916;-46
2022/10/13 21:43:14;;;;;;;;;;;20.70;49.70;;;;;;8429628;28;20388;-46
2022/10/13 21:47:15;;;;;;;;;;;20.70;49.70;;;;;;8429794;28;20004;-45
2022/10/13 21:51:16;;;;;;;;;;;20.70;49.70;;;;;;8428477;28;19931;-43
2022/10/13 21:55:17;;;;;;;;;;;20.70;49.70;;;;;;8429025;28;19982;-43
2022/10/13 21:59:17;;;;;;;;;;;20.70;49.70;;;;;;8429040;28;19916;-44
2022/10/13 22:03:18;;;;;;;;;;;20.70;49.70;;;;;;8433195;28;20365;-44
2022/10/13 22:07:18;;;;;;;;;;;20.70;49.70;;;;;;8435733;28;20376;-44
2022/10/13 22:11:20;;;;;;;;;;;20.70;49.70;;;;;;8435238;28;19973;-44
2022/10/13 22:15:20;;;;;;;;;;;20.70;49.70;;;;;;8434228;28;19923;-44
2022/10/13 22:19:23;;;;;;;;;;;20.70;49.70;;;;;;8434968;28;19916;-43
2022/10/13 22:23:24;;;;;;;;;;;20.70;49.70;;;;;;8435050;28;19923;-44
2022/10/13 22:27:24;;;;;;;;;;;20.70;49.70;;;;;;8434668;28;19999;-43
2022/10/13 22:31:25;;;;;;;;;;;20.70;49.70;;;;;;8434523;28;19931;-44
2022/10/13 22:35:26;;;;;;;;;;;20.70;49.70;;;;;;8434359;28;19912;-44
2022/10/13 22:39:26;;;;;;;;;;;20.70;49.70;;;;;;8433734;28;19916;-44
2022/10/13 22:43:26;;;;;;;;;;;20.60;49.70;;;;;;8434377;28;19922;-45
2022/10/13 22:47:27;;;;;;;;;;;20.60;49.70;;;;;;8434087;28;19916;-44
2022/10/13 22:51:28;;;;;;;;;;;20.70;49.70;;;;;;8433491;28;19927;-43
2022/10/13 22:55:29;;;;;;;;;;;20.60;49.60;;;;;;8434079;28;19916;-44
2022/10/13 22:59:29;;;;;;;;;;;20.60;49.70;;;;;;8433779;28;19975;-44
2022/10/13 23:03:30;;;;;;;;;;;20.60;49.70;;;;;;8433344;28;19920;-44
2022/10/13 23:07:30;;;;;;;;;;;20.70;49.70;;;;;;8433556;28;19920;-43
2022/10/13 23:11:31;;;;;;;;;;;20.60;49.70;;;;;;8432148;28;19924;-44
2022/10/13 23:15:31;;;;;;;;;;;20.60;49.70;;;;;;8432831;28;19916;-43
2022/10/13 23:19:32;;;;;;;;;;;20.60;49.70;;;;;;8433061;28;20265;-44
2022/10/13 23:23:33;;;;;;;;;;;20.60;49.70;;;;;;8433423;28;20286;-43
2022/10/13 23:27:33;;;;;;;;;;;20.60;50.20;;;;;;8432390;28;19995;-43
2022/10/13 23:31:34;;;;;;;;;;;20.70;49.70;;;;;;8432658;28;19977;-44
2022/10/13 23:35:34;;;;;;;;;;;20.60;49.70;;;;;;8432885;28;19912;-44
2022/10/13 23:39:34;;;;;;;;;;;20.60;49.70;;;;;;8432288;28;19916;-44
2022/10/13 23:43:35;;;;;;;;;;;20.60;49.70;;;;;;8432830;28;19916;-44
2022/10/13 23:47:35;;;;;;;;;;;20.60;49.80;;;;;;8432333;28;19920;-43
2022/10/13 23:51:36;;;;;;;;;;;20.60;49.80;;;;;;8431417;28;19928;-44
2022/10/13 23:55:39;;;;;;;;;;;20.60;49.80;;;;;;8432157;28;19912;-44
2022/10/13 23:59:40;;;;;;;;;;;20.60;49.80;;;;;;8431970;28;19923;-43
